Leavenworth, Washington
Current Conditions -  °F | °C
As of 5:55 PM on Saturday 25 Oct 2014 (Local Time) from KEAT Reporting Station
Overcast Overcast  
Wind Chill: 54°   Ceiling: 6500
Heat Index: 54°   Visibility: 10mi
Dew Point: 46°   Wind: 13mph
Humidity: 75%   Direction: 90°E
Pressure: 29.43"   Gusts: NA
Location:  47.6°N, 120.66°W
Report Text: KEAT 260055Z AUTO 09011KT 10SM OVC065 12/08 A2943 RMK AO2 SLP967 T01220078
Loading
Personal Weather Stations






























Interactive Weather Map
Tropical Storm Tracking
New forecast layout! Learn more

10-Day Weather Forecast

Advertisements
Track Severe Weather on mobile